Jefferson, Wisconsin
Current Conditions -  °F | °C
As of 8:15 PM on Thursday 18 Dec 2014 (Local Time) from KRYV Reporting Station
Overcast Overcast  
Wind Chill: 26°   Ceiling: 1900
Heat Index: 26°   Visibility: 10mi
Dew Point: 24°   Wind: 3mph
Humidity: 93%   Direction: 360°N
Pressure: 30.25"   Gusts: NA
Location:  43°N, 88.81°W
Report Text: KRYV 190215Z AUTO 36003KT 10SM OVC019 M03/M04 A3025 RMK AO2 T10351045
Loading
Personal Weather Stations






























Interactive Weather Map New forecast layout! Learn more

10-Day Weather Forecast

Advertisements
Track Severe Weather on mobile